PWSweather.com
Personal Weather Stations
Station Observations
RIORANCHO
Corrales Heights, Rio Rancho, NM 87124

Corrales HeightsRio Rancho, NM 87124

Lat: 35.241928, Lon: -106.647095

Elevation: 5297

Station Type: Davis Vantage Pro 2 Plus

http://www.weatherriorancho.com

High Low Average
Temperature 64.5°F18.1°C 38.2°F3.4°C 50.8°F10.4°C
Dew Point 29.0°F-1.7°C 16.9°F-8.4°C 22.8°F-5.1°C
Winds 17.3 mph 27.8 kmh Calm Calm 3.0 mph W4.8 kmh W
Wind Gusts 28.8 mph46.3 kmh -- 6.0 mph9.7 kmh
Humidity 59% 20% 35%
Pressure 30.13 in1020.3 mb 30.00 in1015.9 mb -
Precipitation 0.00 in0.0 mm - -
Hour Temp Dew Point Humidity Winds Wind Gusts Pressure Precip Precip Rate Daily Precip Total
12:00 AM 43.9°F6.6°C 19.9°F-6.7°C 38% Calm Calm -- 30.13 in1020.3 mb - 0.00 in0.0 mm 0.00 in0.0 mm
12:10 AM 43.5°F6.4°C 19.6°F-6.9°C 38% Calm Calm -- 30.13 in1020.3 mb - 0.00 in0.0 mm 0.00 in0.0 mm
12:20 AM 43.1°F6.2°C 19.2°F-7.1°C 38% Calm Calm -- 30.13 in1020.3 mb - 0.00 in0.0 mm 0.00 in0.0 mm
12:30 AM 42.6°F5.9°C 19.9°F-6.7°C 40% Calm Calm -- 30.13 in1020.3 mb - 0.00 in0.0 mm 0.00 in0.0 mm
12:40 AM 42.0°F5.6°C 20.0°F-6.7°C 41% Calm Calm -- 30.13 in1020.3 mb - 0.00 in0.0 mm 0.00 in0.0 mm
12:50 AM 41.6°F5.3°C 20.2°F-6.6°C 42% Calm Calm -- 30.13 in1020.3 mb - 0.00 in0.0 mm 0.00 in0.0 mm
01:00 AM 41.3°F5.2°C 20.5°F-6.4°C 43% Calm Calm -- 30.13 in1020.3 mb - 0.00 in0.0 mm 0.00 in0.0 mm
01:10 AM 40.8°F4.9°C 20.5°F-6.4°C 44% Calm Calm -- 30.12 in1020.0 mb - 0.00 in0.0 mm 0.00 in0.0 mm
01:20 AM 40.5°F4.7°C 20.8°F-6.2°C 45% Calm Calm -- 30.12 in1020.0 mb - 0.00 in0.0 mm 0.00 in0.0 mm
01:30 AM 40.4°F4.7°C 21.2°F-6.0°C 46% Calm Calm -- 30.12 in1020.0 mb - 0.00 in0.0 mm 0.00 in0.0 mm
01:40 AM 40.3°F4.6°C 21.6°F-5.8°C 47% Calm Calm -- 30.12 in1020.0 mb - 0.00 in0.0 mm 0.00 in0.0 mm
01:50 AM 40.7°F4.8°C 22.0°F-5.6°C 47% Calm Calm -- 30.12 in1020.0 mb - 0.00 in0.0 mm 0.00 in0.0 mm
02:00 AM 42.2°F5.7°C 22.9°F-5.1°C 46% Calm Calm -- 30.12 in1020.0 mb - 0.00 in0.0 mm 0.00 in0.0 mm
02:10 AM 42.7°F5.9°C 22.3°F-5.4°C 44% Calm Calm -- 30.12 in1020.0 mb - 0.00 in0.0 mm 0.00 in0.0 mm
02:20 AM 42.5°F5.8°C 22.1°F-5.5°C 44% Calm Calm -- 30.12 in1020.0 mb - 0.00 in0.0 mm 0.00 in0.0 mm
02:30 AM 43.3°F6.3°C 21.1°F-6.1°C 41% Calm Calm -- 30.12 in1020.0 mb - 0.00 in0.0 mm 0.00 in0.0 mm
02:40 AM 42.8°F6.0°C 20.7°F-6.3°C 41% Calm Calm -- 30.12 in1020.0 mb - 0.00 in0.0 mm 0.00 in0.0 mm
02:50 AM 42.3°F5.7°C 20.8°F-6.2°C 42% Calm Calm -- 30.12 in1020.0 mb - 0.00 in0.0 mm 0.00 in0.0 mm
03:00 AM 41.9°F5.5°C 19.9°F-6.7°C 41% Calm Calm -- 30.12 in1020.0 mb - 0.00 in0.0 mm 0.00 in0.0 mm
03:10 AM 41.7°F5.4°C 19.7°F-6.8°C 41% Calm Calm -- 30.12 in1020.0 mb - 0.00 in0.0 mm 0.00 in0.0 mm
03:20 AM 43.0°F6.1°C 18.5°F-7.5°C 37% Calm Calm -- 30.11 in1019.6 mb - 0.00 in0.0 mm 0.00 in0.0 mm
03:30 AM 42.3°F5.7°C 19.0°F-7.2°C 39% Calm Calm -- 30.11 in1019.6 mb - 0.00 in0.0 mm 0.00 in0.0 mm
03:40 AM 41.5°F5.3°C 18.4°F-7.6°C 39% Calm Calm -- 30.11 in1019.6 mb - 0.00 in0.0 mm 0.00 in0.0 mm
03:50 AM 41.2°F5.1°C 18.1°F-7.7°C 39% Calm Calm -- 30.11 in1019.6 mb - 0.00 in0.0 mm 0.00 in0.0 mm
04:00 AM 41.1°F5.1°C 18.0°F-7.8°C 39% Calm Calm -- 30.11 in1019.6 mb - 0.00 in0.0 mm 0.00 in0.0 mm
04:10 AM 40.8°F4.9°C 18.3°F-7.6°C 40% Calm Calm -- 30.11 in1019.6 mb - 0.00 in0.0 mm 0.00 in0.0 mm
04:20 AM 40.6°F4.8°C 18.2°F-7.7°C 40% Calm Calm -- 30.11 in1019.6 mb - 0.00 in0.0 mm 0.00 in0.0 mm
04:30 AM 40.5°F4.7°C 18.0°F-7.8°C 40% Calm Calm -- 30.11 in1019.6 mb - 0.00 in0.0 mm 0.00 in0.0 mm
04:40 AM 40.3°F4.6°C 17.2°F-8.2°C 39% Calm Calm -- 30.10 in1019.3 mb - 0.00 in0.0 mm 0.00 in0.0 mm
04:50 AM 40.1°F4.5°C 17.1°F-8.3°C 39% Calm Calm -- 30.10 in1019.3 mb - 0.00 in0.0 mm 0.00 in0.0 mm
05:00 AM 39.9°F4.4°C 17.5°F-8.1°C 40% Calm Calm -- 30.10 in1019.3 mb - 0.00 in0.0 mm 0.00 in0.0 mm
05:10 AM 39.9°F4.4°C 16.9°F-8.4°C 39% Calm Calm -- 30.10 in1019.3 mb - 0.00 in0.0 mm 0.00 in0.0 mm
05:20 AM 39.7°F4.3°C 17.9°F-7.8°C 41% Calm Calm -- 30.10 in1019.3 mb - 0.00 in0.0 mm 0.00 in0.0 mm
05:30 AM 39.6°F4.2°C 19.5°F-6.9°C 44% Calm Calm -- 30.11 in1019.6 mb - 0.00 in0.0 mm 0.00 in0.0 mm
05:40 AM 39.5°F4.2°C 21.9°F-5.6°C 49% Calm Calm -- 30.10 in1019.3 mb - 0.00 in0.0 mm 0.00 in0.0 mm
05:50 AM 39.5°F4.2°C 22.8°F-5.1°C 51% Calm Calm -- 30.10 in1019.3 mb - 0.00 in0.0 mm 0.00 in0.0 mm
06:00 AM 40.2°F4.6°C 24.4°F-4.2°C 53% Calm Calm -- 30.10 in1019.3 mb - 0.00 in0.0 mm 0.00 in0.0 mm
06:10 AM 40.7°F4.8°C 25.8°F-3.4°C 55% Calm Calm -- 30.10 in1019.3 mb - 0.00 in0.0 mm 0.00 in0.0 mm
06:20 AM 41.3°F5.2°C 25.9°F-3.4°C 54% 1.2 mph WSW1.9 kmh WSW 2.3 mph3.7 kmh 30.10 in1019.3 mb - 0.00 in0.0 mm 0.00 in0.0 mm
06:30 AM 42.3°F5.7°C 26.9°F-2.8°C 54% 1.2 mph W1.9 kmh W 3.5 mph5.6 kmh 30.11 in1019.6 mb - 0.00 in0.0 mm 0.00 in0.0 mm
06:40 AM 43.4°F6.3°C 26.9°F-2.8°C 52% Calm Calm 1.2 mph1.9 kmh 30.11 in1019.6 mb - 0.00 in0.0 mm 0.00 in0.0 mm
06:50 AM 44.5°F6.9°C 27.0°F-2.8°C 50% 1.2 mph WNW1.9 kmh WNW 11.5 mph18.5 kmh 30.11 in1019.6 mb - 0.00 in0.0 mm 0.00 in0.0 mm
07:00 AM 45.3°F7.4°C 26.8°F-2.9°C 48% Calm Calm 1.2 mph1.9 kmh 30.11 in1019.6 mb - 0.00 in0.0 mm 0.00 in0.0 mm
07:10 AM 44.8°F7.1°C 26.8°F-2.9°C 49% Calm Calm -- 30.10 in1019.3 mb - 0.00 in0.0 mm 0.00 in0.0 mm
07:20 AM 44.2°F6.8°C 26.7°F-2.9°C 50% Calm Calm -- 30.11 in1019.6 mb - 0.00 in0.0 mm 0.00 in0.0 mm
07:30 AM 43.7°F6.5°C 26.3°F-3.2°C 50% Calm Calm -- 30.10 in1019.3 mb - 0.00 in0.0 mm 0.00 in0.0 mm
07:40 AM 42.8°F6.0°C 25.5°F-3.6°C 50% Calm Calm -- 30.11 in1019.6 mb - 0.00 in0.0 mm 0.00 in0.0 mm
07:50 AM 41.5°F5.3°C 24.7°F-4.1°C 51% Calm Calm -- 30.11 in1019.6 mb - 0.00 in0.0 mm 0.00 in0.0 mm
08:00 AM 40.0°F4.4°C 23.8°F-4.6°C 52% Calm Calm -- 30.12 in1020.0 mb - 0.00 in0.0 mm 0.00 in0.0 mm
08:10 AM 39.2°F4.0°C 24.4°F-4.2°C 55% Calm Calm -- 30.11 in1019.6 mb - 0.00 in0.0 mm 0.00 in0.0 mm
08:20 AM 38.5°F3.6°C 24.6°F-4.1°C 57% Calm Calm -- 30.11 in1019.6 mb - 0.00 in0.0 mm 0.00 in0.0 mm
08:30 AM 38.2°F3.4°C 24.7°F-4.1°C 58% Calm Calm -- 30.12 in1020.0 mb - 0.00 in0.0 mm 0.00 in0.0 mm
08:40 AM 38.6°F3.7°C 25.5°F-3.6°C 59% Calm Calm -- 30.12 in1020.0 mb - 0.00 in0.0 mm 0.00 in0.0 mm
08:50 AM 39.8°F4.3°C 25.8°F-3.4°C 57% Calm Calm -- 30.11 in1019.6 mb - 0.00 in0.0 mm 0.00 in0.0 mm
09:00 AM 41.5°F5.3°C 26.5°F-3.1°C 55% Calm Calm -- 30.12 in1020.0 mb - 0.00 in0.0 mm 0.00 in0.0 mm
09:10 AM 43.0°F6.1°C 26.6°F-3.0°C 52% Calm Calm -- 30.11 in1019.6 mb - 0.00 in0.0 mm 0.00 in0.0 mm
09:20 AM 43.6°F6.4°C 24.2°F-4.3°C 46% Calm Calm -- 30.11 in1019.6 mb - 0.00 in0.0 mm 0.00 in0.0 mm
09:30 AM 43.6°F6.4°C 24.1°F-4.4°C 46% Calm Calm -- 30.11 in1019.6 mb - 0.00 in0.0 mm 0.00 in0.0 mm
09:40 AM 44.6°F7.0°C 24.6°F-4.1°C 45% Calm Calm -- 30.11 in1019.6 mb - 0.00 in0.0 mm 0.00 in0.0 mm
09:50 AM 46.1°F7.8°C 25.9°F-3.4°C 45% Calm Calm -- 30.11 in1019.6 mb - 0.00 in0.0 mm 0.00 in0.0 mm
10:00 AM 47.4°F8.6°C 26.5°F-3.1°C 44% Calm Calm -- 30.11 in1019.6 mb - 0.00 in0.0 mm 0.00 in0.0 mm
10:10 AM 48.1°F8.9°C 25.5°F-3.6°C 41% Calm Calm -- 30.11 in1019.6 mb - 0.00 in0.0 mm 0.00 in0.0 mm
10:20 AM 48.6°F9.2°C 26.5°F-3.1°C 42% Calm Calm -- 30.11 in1019.6 mb - 0.00 in0.0 mm 0.00 in0.0 mm
10:30 AM 49.5°F9.7°C 26.8°F-2.9°C 41% Calm Calm -- 30.11 in1019.6 mb - 0.00 in0.0 mm 0.00 in0.0 mm
10:40 AM 50.9°F10.5°C 27.4°F-2.6°C 40% Calm Calm -- 30.12 in1020.0 mb - 0.00 in0.0 mm 0.00 in0.0 mm
10:50 AM 52.0°F11.1°C 27.8°F-2.3°C 39% Calm Calm -- 30.12 in1020.0 mb - 0.00 in0.0 mm 0.00 in0.0 mm
11:00 AM 52.6°F11.4°C 28.3°F-2.1°C 39% Calm Calm -- 30.12 in1020.0 mb - 0.00 in0.0 mm 0.00 in0.0 mm
11:10 AM 54.0°F12.2°C 29.0°F-1.7°C 38% Calm Calm -- 30.12 in1020.0 mb - 0.00 in0.0 mm 0.00 in0.0 mm
11:20 AM 55.6°F13.1°C 28.4°F-2.0°C 35% Calm Calm -- 30.12 in1020.0 mb - 0.00 in0.0 mm 0.00 in0.0 mm
11:30 AM 57.2°F14.0°C 28.3°F-2.1°C 33% 5.8 mph W9.3 kmh W 8.1 mph13.0 kmh 30.12 in1020.0 mb - 0.00 in0.0 mm 0.00 in0.0 mm
11:40 AM 59.1°F15.1°C 28.5°F-1.9°C 31% 1.2 mph WNW1.9 kmh WNW 10.4 mph16.7 kmh 30.11 in1019.6 mb - 0.00 in0.0 mm 0.00 in0.0 mm
11:50 AM 60.0°F15.6°C 28.5°F-1.9°C 30% Calm Calm 1.2 mph1.9 kmh 30.10 in1019.3 mb - 0.00 in0.0 mm 0.00 in0.0 mm
12:00 PM 60.5°F15.8°C 27.2°F-2.7°C 28% 4.6 mph W7.4 kmh W 10.4 mph16.7 kmh 30.10 in1019.3 mb - 0.00 in0.0 mm 0.00 in0.0 mm
12:10 PM 61.1°F16.2°C 25.9°F-3.4°C 26% 3.5 mph WNW5.6 kmh WNW 11.5 mph18.5 kmh 30.09 in1019.0 mb - 0.00 in0.0 mm 0.00 in0.0 mm
12:20 PM 62.0°F16.7°C 25.7°F-3.5°C 25% 8.1 mph WNW13.0 kmh WNW 18.4 mph29.6 kmh 30.09 in1019.0 mb - 0.00 in0.0 mm 0.00 in0.0 mm
12:30 PM 61.5°F16.4°C 25.3°F-3.7°C 25% 6.9 mph W11.1 kmh W 8.1 mph13.0 kmh 30.08 in1018.6 mb - 0.00 in0.0 mm 0.00 in0.0 mm
12:40 PM 61.9°F16.6°C 24.6°F-4.1°C 24% 5.8 mph W9.3 kmh W 16.1 mph25.9 kmh 30.08 in1018.6 mb - 0.00 in0.0 mm 0.00 in0.0 mm
12:50 PM 61.7°F16.5°C 24.5°F-4.2°C 24% 17.3 mph WNW27.8 kmh WNW 21.9 mph35.2 kmh 30.07 in1018.3 mb - 0.00 in0.0 mm 0.00 in0.0 mm
01:00 PM 62.6°F17.0°C 25.2°F-3.8°C 24% 3.5 mph WNW5.6 kmh WNW 12.7 mph20.4 kmh 30.07 in1018.3 mb - 0.00 in0.0 mm 0.00 in0.0 mm
01:10 PM 62.9°F17.2°C 24.5°F-4.2°C 23% 9.2 mph W14.8 kmh W 17.3 mph27.8 kmh 30.07 in1018.3 mb - 0.00 in0.0 mm 0.00 in0.0 mm
01:20 PM 63.4°F17.4°C 23.8°F-4.6°C 22% 10.4 mph W16.7 kmh W 18.4 mph29.6 kmh 30.06 in1017.9 mb - 0.00 in0.0 mm 0.00 in0.0 mm
01:30 PM 64.0°F17.8°C 24.3°F-4.3°C 22% 8.1 mph W13.0 kmh W 16.1 mph25.9 kmh 30.05 in1017.6 mb - 0.00 in0.0 mm 0.00 in0.0 mm
01:40 PM 64.3°F17.9°C 24.6°F-4.1°C 22% 10.4 mph W16.7 kmh W 18.4 mph29.6 kmh 30.05 in1017.6 mb - 0.00 in0.0 mm 0.00 in0.0 mm
01:50 PM 64.2°F17.9°C 23.4°F-4.8°C 21% 10.4 mph WSW16.7 kmh WSW 17.3 mph27.8 kmh 30.04 in1017.3 mb - 0.00 in0.0 mm 0.00 in0.0 mm
02:00 PM 64.0°F17.8°C 24.3°F-4.3°C 22% 6.9 mph W11.1 kmh W 10.4 mph16.7 kmh 30.04 in1017.3 mb - 0.00 in0.0 mm 0.00 in0.0 mm
02:10 PM 64.2°F17.9°C 23.4°F-4.8°C 21% 9.2 mph WNW14.8 kmh WNW 16.1 mph25.9 kmh 30.03 in1016.9 mb - 0.00 in0.0 mm 0.00 in0.0 mm
02:20 PM 64.4°F18.0°C 23.6°F-4.7°C 21% 6.9 mph W11.1 kmh W 11.5 mph18.5 kmh 30.02 in1016.6 mb - 0.00 in0.0 mm 0.00 in0.0 mm
02:30 PM 64.2°F17.9°C 23.4°F-4.8°C 21% 9.2 mph WSW14.8 kmh WSW 18.4 mph29.6 kmh 30.02 in1016.6 mb - 0.00 in0.0 mm 0.00 in0.0 mm
02:40 PM 63.4°F17.4°C 23.8°F-4.6°C 22% 9.2 mph W14.8 kmh W 17.3 mph27.8 kmh 30.01 in1016.3 mb - 0.00 in0.0 mm 0.00 in0.0 mm
02:50 PM 64.3°F17.9°C 23.5°F-4.7°C 21% 12.7 mph WNW20.4 kmh WNW 23.0 mph37.0 kmh 30.01 in1016.3 mb - 0.00 in0.0 mm 0.00 in0.0 mm
03:00 PM 64.2°F17.9°C 23.4°F-4.8°C 21% 12.7 mph WNW20.4 kmh WNW 20.7 mph33.3 kmh 30.00 in1015.9 mb - 0.00 in0.0 mm 0.00 in0.0 mm
03:10 PM 64.5°F18.1°C 23.7°F-4.6°C 21% 11.5 mph W18.5 kmh W 26.5 mph42.6 kmh 30.00 in1015.9 mb - 0.00 in0.0 mm 0.00 in0.0 mm
03:20 PM 64.5°F18.1°C 23.6°F-4.7°C 21% 9.2 mph W14.8 kmh W 17.3 mph27.8 kmh 30.00 in1015.9 mb - 0.00 in0.0 mm 0.00 in0.0 mm
03:30 PM 64.1°F17.8°C 22.2°F-5.4°C 20% 15.0 mph W24.1 kmh W 23.0 mph37.0 kmh 30.00 in1015.9 mb - 0.00 in0.0 mm 0.00 in0.0 mm
03:40 PM 64.0°F17.8°C 22.1°F-5.5°C 20% 10.4 mph W16.7 kmh W 18.4 mph29.6 kmh 30.00 in1015.9 mb - 0.00 in0.0 mm 0.00 in0.0 mm
03:50 PM 63.6°F17.6°C 22.9°F-5.1°C 21% 16.1 mph W25.9 kmh W 28.8 mph46.3 kmh 30.00 in1015.9 mb - 0.00 in0.0 mm 0.00 in0.0 mm
04:00 PM 63.6°F17.6°C 22.9°F-5.1°C 21% 12.7 mph WNW20.4 kmh WNW 20.7 mph33.3 kmh 30.01 in1016.3 mb - 0.00 in0.0 mm 0.00 in0.0 mm
04:10 PM 63.6°F17.6°C 21.7°F-5.7°C 20% 5.8 mph NW9.3 kmh NW 11.5 mph18.5 kmh 30.01 in1016.3 mb - 0.00 in0.0 mm 0.00 in0.0 mm
04:20 PM 63.2°F17.3°C 21.4°F-5.9°C 20% 13.8 mph NW22.2 kmh NW 19.6 mph31.5 kmh 30.01 in1016.3 mb - 0.00 in0.0 mm 0.00 in0.0 mm
04:30 PM 62.8°F17.1°C 22.2°F-5.4°C 21% 9.2 mph WNW14.8 kmh WNW 19.6 mph31.5 kmh 30.01 in1016.3 mb - 0.00 in0.0 mm 0.00 in0.0 mm
04:40 PM 62.9°F17.2°C 21.2°F-6.0°C 20% 6.9 mph WNW11.1 kmh WNW 15.0 mph24.1 kmh 30.01 in1016.3 mb - 0.00 in0.0 mm 0.00 in0.0 mm
04:50 PM 63.2°F17.3°C 21.4°F-5.9°C 20% 12.7 mph NW20.4 kmh NW 18.4 mph29.6 kmh 30.02 in1016.6 mb - 0.00 in0.0 mm 0.00 in0.0 mm
05:00 PM 63.4°F17.4°C 21.6°F-5.8°C 20% 5.8 mph WNW9.3 kmh WNW 12.7 mph20.4 kmh 30.02 in1016.6 mb - 0.00 in0.0 mm 0.00 in0.0 mm
05:10 PM 63.1°F17.3°C 21.4°F-5.9°C 20% 4.6 mph WNW7.4 kmh WNW 8.1 mph13.0 kmh 30.02 in1016.6 mb - 0.00 in0.0 mm 0.00 in0.0 mm
05:20 PM 62.7°F17.1°C 21.0°F-6.1°C 20% 11.5 mph WNW18.5 kmh WNW 17.3 mph27.8 kmh 30.02 in1016.6 mb - 0.00 in0.0 mm 0.00 in0.0 mm
05:30 PM 61.7°F16.5°C 20.2°F-6.6°C 20% 4.6 mph NW7.4 kmh NW 11.5 mph18.5 kmh 30.02 in1016.6 mb - 0.00 in0.0 mm 0.00 in0.0 mm
05:40 PM 61.4°F16.3°C 21.1°F-6.1°C 21% 1.2 mph WNW1.9 kmh WNW 4.6 mph7.4 kmh 30.02 in1016.6 mb - 0.00 in0.0 mm 0.00 in0.0 mm
05:50 PM 61.4°F16.3°C 21.1°F-6.1°C 21% 5.8 mph W9.3 kmh W 12.7 mph20.4 kmh 30.02 in1016.6 mb - 0.00 in0.0 mm 0.00 in0.0 mm
06:00 PM 61.1°F16.2°C 20.8°F-6.2°C 21% 8.1 mph W13.0 kmh W 16.1 mph25.9 kmh 30.02 in1016.6 mb - 0.00 in0.0 mm 0.00 in0.0 mm
06:10 PM 60.4°F15.8°C 21.3°F-5.9°C 22% 2.3 mph W3.7 kmh W 8.1 mph13.0 kmh 30.02 in1016.6 mb - 0.00 in0.0 mm 0.00 in0.0 mm
06:20 PM 59.7°F15.4°C 21.8°F-5.7°C 23% 8.1 mph WNW13.0 kmh WNW 17.3 mph27.8 kmh 30.02 in1016.6 mb - 0.00 in0.0 mm 0.00 in0.0 mm
06:30 PM 59.1°F15.1°C 21.3°F-5.9°C 23% 6.9 mph WNW11.1 kmh WNW 12.7 mph20.4 kmh 30.03 in1016.9 mb - 0.00 in0.0 mm 0.00 in0.0 mm
06:40 PM 58.4°F14.7°C 21.7°F-5.7°C 24% 9.2 mph W14.8 kmh W 15.0 mph24.1 kmh 30.04 in1017.3 mb - 0.00 in0.0 mm 0.00 in0.0 mm
06:50 PM 57.8°F14.3°C 21.2°F-6.0°C 24% 9.2 mph W14.8 kmh W 12.7 mph20.4 kmh 30.04 in1017.3 mb - 0.00 in0.0 mm 0.00 in0.0 mm
07:00 PM 57.3°F14.1°C 21.7°F-5.7°C 25% 4.6 mph WNW7.4 kmh WNW 10.4 mph16.7 kmh 30.05 in1017.6 mb - 0.00 in0.0 mm 0.00 in0.0 mm
07:10 PM 57.0°F13.9°C 21.5°F-5.8°C 25% 1.2 mph NW1.9 kmh NW 3.5 mph5.6 kmh 30.05 in1017.6 mb - 0.00 in0.0 mm 0.00 in0.0 mm
07:20 PM 56.5°F13.6°C 22.0°F-5.6°C 26% Calm Calm -- 30.05 in1017.6 mb - 0.00 in0.0 mm 0.00 in0.0 mm
07:30 PM 55.9°F13.3°C 22.4°F-5.3°C 27% Calm Calm -- 30.06 in1017.9 mb - 0.00 in0.0 mm 0.00 in0.0 mm
07:40 PM 55.2°F12.9°C 21.8°F-5.7°C 27% Calm Calm -- 30.06 in1017.9 mb - 0.00 in0.0 mm 0.00 in0.0 mm
07:50 PM 54.5°F12.5°C 22.0°F-5.6°C 28% Calm Calm -- 30.06 in1017.9 mb - 0.00 in0.0 mm 0.00 in0.0 mm
08:00 PM 54.4°F12.4°C 21.9°F-5.6°C 28% 2.3 mph NW3.7 kmh NW 4.6 mph7.4 kmh 30.06 in1017.9 mb - 0.00 in0.0 mm 0.00 in0.0 mm
08:10 PM 54.2°F12.3°C 21.8°F-5.7°C 28% Calm Calm 3.5 mph5.6 kmh 30.06 in1017.9 mb - 0.00 in0.0 mm 0.00 in0.0 mm
08:20 PM 54.0°F12.2°C 22.4°F-5.3°C 29% 3.5 mph W5.6 kmh W 9.2 mph14.8 kmh 30.06 in1017.9 mb - 0.00 in0.0 mm 0.00 in0.0 mm
08:30 PM 53.9°F12.2°C 22.4°F-5.3°C 29% 9.2 mph W14.8 kmh W 18.4 mph29.6 kmh 30.06 in1017.9 mb - 0.00 in0.0 mm 0.00 in0.0 mm
08:40 PM 54.2°F12.3°C 22.6°F-5.2°C 29% 6.9 mph W11.1 kmh W 10.4 mph16.7 kmh 30.06 in1017.9 mb - 0.00 in0.0 mm 0.00 in0.0 mm
08:50 PM 53.8°F12.1°C 22.2°F-5.4°C 29% 5.8 mph W9.3 kmh W 11.5 mph18.5 kmh 30.06 in1017.9 mb - 0.00 in0.0 mm 0.00 in0.0 mm
09:00 PM 53.0°F11.7°C 22.3°F-5.4°C 30% 3.5 mph WNW5.6 kmh WNW 8.1 mph13.0 kmh 30.06 in1017.9 mb - 0.00 in0.0 mm 0.00 in0.0 mm
09:10 PM 52.1°F11.2°C 22.3°F-5.4°C 31% 1.2 mph W1.9 kmh W 4.6 mph7.4 kmh 30.07 in1018.3 mb - 0.00 in0.0 mm 0.00 in0.0 mm
09:20 PM 51.4°F10.8°C 21.7°F-5.7°C 31% 2.3 mph W3.7 kmh W 8.1 mph13.0 kmh 30.07 in1018.3 mb - 0.00 in0.0 mm 0.00 in0.0 mm
09:30 PM 50.8°F10.4°C 22.0°F-5.6°C 32% 2.3 mph W3.7 kmh W 9.2 mph14.8 kmh 30.07 in1018.3 mb - 0.00 in0.0 mm 0.00 in0.0 mm
09:40 PM 50.7°F10.4°C 21.9°F-5.6°C 32% 2.3 mph WNW3.7 kmh WNW 5.8 mph9.3 kmh 30.08 in1018.6 mb - 0.00 in0.0 mm 0.00 in0.0 mm
09:50 PM 50.2°F10.1°C 21.4°F-5.9°C 32% Calm Calm -- 30.09 in1019.0 mb - 0.00 in0.0 mm 0.00 in0.0 mm
10:00 PM 49.6°F9.8°C 21.7°F-5.7°C 33% Calm Calm -- 30.09 in1019.0 mb - 0.00 in0.0 mm 0.00 in0.0 mm
10:10 PM 48.8°F9.3°C 21.7°F-5.7°C 34% Calm Calm -- 30.09 in1019.0 mb - 0.00 in0.0 mm 0.00 in0.0 mm
10:20 PM 48.3°F9.1°C 21.9°F-5.6°C 35% 3.5 mph WNW5.6 kmh WNW 8.1 mph13.0 kmh 30.09 in1019.0 mb - 0.00 in0.0 mm 0.00 in0.0 mm
10:30 PM 47.7°F8.7°C 21.4°F-5.9°C 35% 2.3 mph W3.7 kmh W 4.6 mph7.4 kmh 30.09 in1019.0 mb - 0.00 in0.0 mm 0.00 in0.0 mm
10:40 PM 47.0°F8.3°C 21.4°F-5.9°C 36% Calm Calm -- 30.09 in1019.0 mb - 0.00 in0.0 mm 0.00 in0.0 mm
10:50 PM 46.5°F8.1°C 21.6°F-5.8°C 37% Calm Calm 1.2 mph1.9 kmh 30.10 in1019.3 mb - 0.00 in0.0 mm 0.00 in0.0 mm
11:00 PM 46.6°F8.1°C 21.7°F-5.7°C 37% Calm Calm 2.3 mph3.7 kmh 30.10 in1019.3 mb - 0.00 in0.0 mm 0.00 in0.0 mm
11:10 PM 46.8°F8.2°C 21.8°F-5.7°C 37% Calm Calm 3.5 mph5.6 kmh 30.09 in1019.0 mb - 0.00 in0.0 mm 0.00 in0.0 mm
11:20 PM 46.9°F8.3°C 22.0°F-5.6°C 37% 1.2 mph W1.9 kmh W 3.5 mph5.6 kmh 30.10 in1019.3 mb - 0.00 in0.0 mm 0.00 in0.0 mm
11:30 PM 46.7°F8.2°C 21.8°F-5.7°C 37% 2.3 mph W3.7 kmh W 3.5 mph5.6 kmh 30.10 in1019.3 mb - 0.00 in0.0 mm 0.00 in0.0 mm
11:40 PM 46.5°F8.1°C 21.6°F-5.8°C 37% Calm Calm 1.2 mph1.9 kmh 30.11 in1019.6 mb - 0.00 in0.0 mm 0.00 in0.0 mm
11:50 PM 45.9°F7.7°C 21.7°F-5.7°C 38% 1.2 mph W1.9 kmh W 3.5 mph5.6 kmh 30.11 in1019.6 mb - 0.00 in0.0 mm 0.00 in0.0 mm